Time;durP1;ratioP1;P1;durP2;ratioP2;P2;SDS_P1;SDS_P2;PMS_P1;PMS_P2;Temp;Humidity;BMP_temperature;BMP_pressure;BME280_temperature;BME280_humidity;BME280_pressure;Samples;Min_cycle;Max_cycle;Signal;HPM_P1;HPM_P2
2022/10/22 00:02:18;;;;;;;53.83;50.15;;;;;;;2.86;100.00;101903.00;5120930;22;20078;-92
2022/10/22 00:04:46;;;;;;;45.00;41.42;;;;;;;2.93;100.00;101888.38;5112826;28;20044;-92
2022/10/22 00:07:13;;;;;;;47.05;42.95;;;;;;;3.21;100.00;101893.97;5117251;28;20051;-93
2022/10/22 00:09:41;;;;;;;48.30;44.17;;;;;;;3.14;100.00;101884.94;5115211;28;20103;-93
2022/10/22 00:12:08;;;;;;;48.03;43.83;;;;;;;2.92;100.00;101872.78;5112602;28;20493;-93
2022/10/22 00:14:38;;;;;;;45.58;41.03;;;;;;;2.91;100.00;101877.22;5115117;28;20492;-93
2022/10/22 00:17:06;;;;;;;48.50;44.25;;;;;;;2.93;100.00;101863.94;5117444;28;20497;-93
2022/10/22 00:19:37;;;;;;;46.63;42.42;;;;;;;3.22;100.00;101872.84;5120120;28;20048;-93
2022/10/22 00:22:05;;;;;;;47.15;42.85;;;;;;;2.74;100.00;101856.78;5119685;28;20271;-93
2022/10/22 00:24:32;;;;;;;49.78;45.70;;;;;;;2.78;100.00;101865.22;5113345;28;20044;-94
2022/10/22 00:26:59;;;;;;;45.92;41.90;;;;;;;2.89;100.00;101852.03;5113151;28;20044;-94
2022/10/22 00:29:26;;;;;;;44.72;41.03;;;;;;;2.85;100.00;101861.97;5110219;28;20054;-93
2022/10/22 00:31:53;;;;;;;43.80;39.90;;;;;;;2.91;100.00;101850.97;5113253;28;20047;-93
2022/10/22 00:34:23;;;;;;;47.50;43.90;;;;;;;3.03;100.00;101861.41;5112082;28;20048;-93
2022/10/22 00:36:52;;;;;;;47.38;43.65;;;;;;;3.27;100.00;101861.94;5118538;28;20107;-93
2022/10/22 00:39:21;;;;;;;46.38;42.10;;;;;;;3.07;100.00;101858.38;5116266;28;20051;-93
2022/10/22 00:41:51;;;;;;;45.95;42.03;;;;;;;3.11;100.00;101853.69;5116402;28;20047;-93
2022/10/22 00:44:54;;;;;;;45.55;41.88;;;;;;;3.19;100.00;101861.75;5113887;28;20055;-93
2022/10/22 00:47:23;;;;;;;49.40;45.38;;;;;;;3.09;100.00;101840.72;5107531;28;20103;-93
2022/10/22 00:49:52;;;;;;;50.65;46.40;;;;;;;3.01;100.00;101843.13;5119007;28;20051;-93
2022/10/22 00:52:22;;;;;;;48.90;44.75;;;;;;;2.95;100.00;101841.03;5119855;28;20136;-93
2022/10/22 00:54:50;;;;;;;44.75;40.83;;;;;;;2.58;100.00;101836.22;5121792;28;20040;-93
2022/10/22 00:57:18;;;;;;;46.40;42.47;;;;;;;2.86;100.00;101842.63;5122621;28;20046;-93
2022/10/22 00:59:45;;;;;;;43.55;39.83;;;;;;;2.89;100.00;101839.75;5123697;28;20063;-93
2022/10/22 01:02:12;;;;;;;43.95;40.03;;;;;;;2.87;100.00;101839.03;5121715;28;20057;-95
2022/10/22 01:04:40;;;;;;;42.30;38.75;;;;;;;2.94;100.00;101844.63;5125514;28;20155;-93
2022/10/22 01:07:15;;;;;;;43.22;39.70;;;;;;;2.88;100.00;101835.47;5126224;28;20112;-92
2022/10/22 01:09:49;;;;;;;41.85;38.45;;;;;;;2.88;100.00;101838.09;5127817;28;20137;-93
2022/10/22 01:12:23;;;;;;;41.35;38.00;;;;;;;2.61;100.00;101835.13;5129640;28;20051;-93
2022/10/22 01:15:07;;;;;;;40.88;37.75;;;;;;;2.42;100.00;101836.66;5124973;28;20043;-93
2022/10/22 01:17:48;;;;;;;42.85;39.65;;;;;;;2.61;100.00;101835.13;5124459;28;20047;-93
2022/10/22 01:20:38;;;;;;;41.00;38.05;;;;;;;2.36;100.00;101820.56;5124249;28;20107;-94
2022/10/22 01:23:21;;;;;;;42.30;39.20;;;;;;;2.57;100.00;101829.28;5127427;28;20043;-94
2022/10/22 01:25:52;;;;;;;;;;;;;;;2.45;100.00;101825.06;5125613;28;20047;-93
2022/10/22 01:28:26;;;;;;;43.80;39.88;;;;;;;2.24;100.00;101818.00;5115171;28;19927;-92
2022/10/22 01:30:58;;;;;;;46.50;42.95;;;;;;;2.63;100.00;101828.81;5122933;28;20094;-93
2022/10/22 01:33:26;;;;;;;44.28;41.08;;;;;;;2.69;100.00;101820.44;5128257;28;20444;-93
2022/10/22 01:35:55;;;;;;;44.25;40.80;;;;;;;2.94;100.00;101821.84;5123985;28;20055;-93
2022/10/22 01:38:26;;;;;;;47.45;43.75;;;;;;;2.97;100.00;101812.88;5123029;28;20040;-93
2022/10/22 01:40:53;;;;;;;46.55;42.95;;;;;;;2.81;100.00;101809.84;5117309;28;20036;-93
2022/10/22 01:43:20;;;;;;;43.92;40.28;;;;;;;2.78;100.00;101813.56;5124869;28;20055;-93
2022/10/22 01:45:50;;;;;;;43.42;40.13;;;;;;;2.58;100.00;101799.50;5120463;28;20054;-93
2022/10/22 01:48:30;;;;;;;41.83;38.53;;;;;;;2.58;100.00;101815.25;5118522;28;20039;-93
2022/10/22 01:51:23;;;;;;;42.22;38.70;;;;;;;2.69;100.00;101817.81;5116365;28;20048;-94
2022/10/22 01:53:57;;;;;;;42.78;39.45;;;;;;;2.65;100.00;101810.31;5120722;28;20043;-93
2022/10/22 01:56:37;;;;;;;41.45;38.28;;;;;;;2.60;100.00;101815.09;5117690;28;20459;-93
2022/10/22 01:59:10;;;;;;;42.45;39.28;;;;;;;2.58;100.00;101803.91;5117990;28;20100;-94
2022/10/22 02:01:46;;;;;;;42.63;39.30;;;;;;;2.51;100.00;101809.69;5109256;22;20158;-83
2022/10/22 02:04:20;;;;;;;40.88;37.70;;;;;;;2.58;100.00;101812.63;5073440;28;20053;-81
2022/10/22 02:06:50;;;;;;;38.63;35.72;;;;;;;2.08;100.00;101814.94;5076378;28;20048;-82
2022/10/22 02:09:20;;;;;;;40.17;37.10;;;;;;;2.39;100.00;101807.19;5078442;28;20109;-82
2022/10/22 02:11:48;;;;;;;44.53;39.72;;;;;;;2.33;100.00;101805.94;5078102;28;20045;-78
2022/10/22 02:14:17;;;;;;;41.22;38.05;;;;;;;2.38;100.00;101806.38;5075708;28;20130;-79
2022/10/22 02:16:46;;;;;;;41.75;38.67;;;;;;;2.64;100.00;101814.72;5081847;28;20056;-78
2022/10/22 02:19:19;;;;;;;38.90;36.00;;;;;;;2.69;100.00;101812.56;5088654;28;20479;-76
2022/10/22 02:21:46;;;;;;;39.38;36.38;;;;;;;2.68;100.00;101812.69;5079026;28;20086;-78
2022/10/22 02:24:13;;;;;;;38.60;35.67;;;;;;;2.19;100.00;101807.06;5080736;28;20185;-77
2022/10/22 02:26:46;;;;;;;42.58;39.38;;;;;;;2.46;100.00;101803.13;5076858;28;20117;-76
2022/10/22 02:29:18;;;;;;;40.45;37.45;;;;;;;2.71;100.00;101807.19;5076326;28;20040;-77
2022/10/22 02:31:48;;;;;;;43.45;39.40;;;;;;;2.50;100.00;101802.75;5074589;28;20052;-77
2022/10/22 02:34:22;;;;;;;41.95;38.60;;;;;;;2.43;100.00;101793.72;5075631;28;20036;-77
2022/10/22 02:36:50;;;;;;;41.88;38.63;;;;;;;2.38;100.00;101795.06;5072909;28;20127;-76
2022/10/22 02:39:20;;;;;;;41.53;38.28;;;;;;;2.52;100.00;101792.13;5072652;28;20059;-77
2022/10/22 02:41:47;;;;;;;43.08;39.67;;;;;;;2.65;100.00;101789.31;5072869;28;20455;-77
2022/10/22 02:44:14;;;;;;;40.95;37.72;;;;;;;2.56;100.00;101790.91;5071776;28;20049;-76
2022/10/22 02:46:43;;;;;;;43.83;39.85;;;;;;;2.74;100.00;101792.00;5072921;28;20048;-77
2022/10/22 02:49:10;;;;;;;44.20;40.50;;;;;;;2.69;100.00;101786.34;5076470;28;20055;-81
2022/10/22 02:51:38;;;;;;;44.97;41.35;;;;;;;2.69;100.00;101783.72;5077972;28;20048;-81
2022/10/22 02:54:05;;;;;;;43.25;39.75;;;;;;;2.48;100.00;101775.84;5060155;28;20409;-81
2022/10/22 02:56:32;;;;;;;43.15;39.47;;;;;;;2.49;100.00;101774.88;5073714;28;20114;-78
2022/10/22 02:58:59;;;;;;;44.97;40.90;;;;;;;2.54;100.00;101774.47;5074794;28;20044;-81
2022/10/22 03:01:26;;;;;;;47.22;43.00;;;;;;;2.44;100.00;101776.19;5070150;28;20048;-81
2022/10/22 03:03:54;;;;;;;45.15;40.85;;;;;;;2.17;100.00;101771.44;5076450;28;20442;-81
2022/10/22 03:06:21;;;;;;;45.28;41.38;;;;;;;2.57;100.00;101773.38;5070030;28;20114;-80
2022/10/22 03:08:49;;;;;;;45.30;41.55;;;;;;;2.66;100.00;101773.47;5062203;28;20412;-81
2022/10/22 03:11:16;;;;;;;44.15;40.50;;;;;;;2.62;100.00;101765.97;5067756;28;20048;-80
2022/10/22 03:13:43;;;;;;;45.95;41.92;;;;;;;2.66;100.00;101762.97;5068047;28;20121;-81
2022/10/22 03:16:10;;;;;;;45.00;41.60;;;;;;;2.37;100.00;101761.94;5070277;28;20106;-81
2022/10/22 03:18:37;;;;;;;46.45;42.67;;;;;;;2.30;100.00;101759.00;5074628;28;20048;-77
2022/10/22 03:21:09;;;;;;;46.67;43.05;;;;;;;2.31;100.00;101759.81;5071367;28;20578;-80
2022/10/22 03:23:39;;;;;;;43.17;39.78;;;;;;;2.41;100.00;101764.16;5073067;28;20462;-80
2022/10/22 03:26:08;;;;;;;44.65;41.35;;;;;;;2.51;100.00;101766.84;5066169;28;20111;-78
2022/10/22 03:28:37;;;;;;;42.47;39.38;;;;;;;2.45;100.00;101770.84;5069610;28;20490;-81
2022/10/22 03:31:03;;;;;;;43.42;39.80;;;;;;;2.62;100.00;101771.22;5068655;28;20045;-79
2022/10/22 03:33:30;;;;;;;43.50;39.83;;;;;;;2.70;100.00;101768.78;5072442;28;20048;-78
2022/10/22 03:35:58;;;;;;;41.78;38.78;;;;;;;2.60;100.00;101773.94;5073672;28;20049;-78
2022/10/22 03:38:25;;;;;;;41.95;38.58;;;;;;;2.55;100.00;101770.06;5065061;28;20118;-76
2022/10/22 03:40:53;;;;;;;41.17;38.00;;;;;;;2.51;100.00;101774.72;5067941;28;20110;-80
2022/10/22 03:43:22;;;;;;;45.22;41.78;;;;;;;2.59;100.00;101766.22;5061825;28;20558;-80
2022/10/22 03:45:49;;;;;;;44.78;41.08;;;;;;;2.51;100.00;101756.38;5067593;28;20040;-77
2022/10/22 03:48:16;;;;;;;56.60;50.47;;;;;;;2.36;100.00;101752.38;5068780;28;20465;-77
2022/10/22 03:50:44;;;;;;;67.28;59.90;;;;;;;2.34;100.00;101754.31;5068802;28;20446;-78
2022/10/22 03:53:11;;;;;;;64.00;57.15;;;;;;;2.56;100.00;101746.31;5064500;28;20450;-78
2022/10/22 03:55:38;;;;;;;71.57;59.85;;;;;;;2.21;100.00;101749.25;5066615;28;20052;-77
2022/10/22 03:58:05;;;;;;;74.28;60.60;;;;;;;2.23;100.00;101758.66;5070489;28;20721;-77
2022/10/22 04:00:35;;;;;;;62.67;55.60;;;;;;;2.49;100.00;101769.63;5072898;28;20056;-77
2022/10/22 04:03:02;;;;;;;64.05;57.22;;;;;;;2.71;100.00;101773.91;5076137;28;20449;-77
2022/10/22 04:05:29;;;;;;;59.33;53.15;;;;;;;2.39;100.00;101781.84;5070630;28;20053;-77
2022/10/22 04:07:55;;;;;;;60.67;54.45;;;;;;;2.58;100.00;101782.94;5070215;28;20438;-77
2022/10/22 04:10:22;;;;;;;56.60;51.22;;;;;;;2.53;100.00;101778.06;5071639;28;20048;-77
2022/10/22 04:12:49;;;;;;;57.08;51.67;;;;;;;2.40;100.00;101765.13;5068575;28;20041;-77
2022/10/22 04:15:16;;;;;;;55.72;49.85;;;;;;;1.82;100.00;101773.34;5069641;28;20530;-82
2022/10/22 04:17:46;;;;;;;53.28;48.22;;;;;;;1.91;100.00;101770.94;5072841;28;20208;-80
2022/10/22 04:20:13;;;;;;;51.50;46.60;;;;;;;2.36;100.00;101765.50;5073219;28;20109;-79
2022/10/22 04:22:40;;;;;;;53.30;47.90;;;;;;;2.50;100.00;101765.19;5072223;28;20076;-77
2022/10/22 04:25:08;;;;;;;58.28;51.53;;;;;;;2.13;100.00;101767.41;5068968;28;20053;-77
2022/10/22 04:27:35;;;;;;;59.85;53.35;;;;;;;2.42;100.00;101765.00;5069200;28;20056;-79
2022/10/22 04:30:03;;;;;;;58.72;52.28;;;;;;;2.32;100.00;101775.41;5076709;28;20131;-77
2022/10/22 04:32:30;;;;;;;59.33;53.10;;;;;;;2.55;100.00;101765.66;5073845;28;20416;-77
2022/10/22 04:34:58;;;;;;;62.30;55.78;;;;;;;2.40;100.00;101759.06;5075161;28;20126;-77
2022/10/22 04:37:25;;;;;;;60.92;54.50;;;;;;;2.56;100.00;101758.63;5073284;28;20396;-79
2022/10/22 05:00:26;;;;;;;49.03;44.80;;;;;;;2.33;100.00;101795.44;6145501;23;153982;-78
2022/10/22 05:02:53;;;;;;;48.05;43.80;;;;;;;2.56;100.00;101790.09;6140756;23;20029;-79
2022/10/22 05:05:19;;;;;;;53.47;48.63;;;;;;;2.84;100.00;101801.72;6142026;23;20304;-78
2022/10/22 05:07:46;;;;;;;48.03;44.00;;;;;;;2.38;100.00;101801.13;6149662;23;20022;-78
2022/10/22 05:10:13;;;;;;;54.60;49.78;;;;;;;2.79;100.00;101812.63;6154417;23;20009;-79
2022/10/22 05:12:40;;;;;;;58.95;52.95;;;;;;;3.08;100.00;101799.66;6155090;23;20030;-78
2022/10/22 05:15:08;;;;;;;57.80;50.33;;;;;;;2.78;100.00;101802.25;6147424;23;20026;-80
2022/10/22 05:17:37;;;;;;;56.40;50.63;;;;;;;3.10;100.00;101799.53;6121957;23;20089;-80
2022/10/22 05:20:05;;;;;;;66.05;56.58;;;;;;;3.24;100.00;101787.84;6133552;23;20022;-80
2022/10/22 05:22:34;;;;;;;64.43;57.20;;;;;;;3.38;100.00;101783.06;6133250;23;20025;-80
2022/10/22 05:25:01;;;;;;;57.53;51.47;;;;;;;3.16;100.00;101791.13;6133294;23;20064;-80
2022/10/22 05:27:27;;;;;;;62.60;56.15;;;;;;;3.28;100.00;101790.09;6133787;23;20025;-80
2022/10/22 05:29:54;;;;;;;64.28;57.72;;;;;;;3.33;100.00;101787.91;6133672;23;20034;-79
2022/10/22 05:32:34;;;;;;;62.42;55.13;;;;;;;3.60;100.00;101796.94;6144676;23;20513;-79
2022/10/22 05:35:05;;;;;;;57.30;51.50;;;;;;;3.00;100.00;101801.28;6139283;23;20422;-78
2022/10/22 05:37:32;;;;;;;65.20;58.35;;;;;;;4.13;100.00;101797.47;6135108;23;20022;-78
2022/10/22 05:39:59;;;;;;;61.08;55.17;;;;;;;4.42;100.00;101801.94;6135399;23;20060;-79
2022/10/22 05:42:26;;;;;;;59.38;53.20;;;;;;;4.51;100.00;101808.97;6134202;23;20403;-80
2022/10/22 05:44:54;;;;;;;55.40;50.17;;;;;;;4.97;100.00;101811.81;6133452;23;20455;-80
2022/10/22 05:47:20;;;;;;;46.25;42.72;;;;;;;5.41;100.00;101814.72;6133444;23;20080;-80
2022/10/22 05:49:47;;;;;;;45.25;41.63;;;;;;;5.30;100.00;101814.91;6132341;23;20439;-80
2022/10/22 05:52:15;;;;;;;42.72;39.80;;;;;;;5.42;100.00;101806.69;6130290;23;20395;-80
2022/10/22 05:54:42;;;;;;;52.88;48.35;;;;;;;6.04;100.00;101791.09;6126688;23;20104;-80
2022/10/22 05:57:09;;;;;;;54.10;49.40;;;;;;;5.97;100.00;101804.03;6126693;23;20089;-80
2022/10/22 05:59:36;;;;;;;55.53;50.33;;;;;;;6.78;100.00;101786.44;6126540;23;20030;-79
2022/10/22 06:02:03;;;;;;;54.28;49.47;;;;;;;6.89;100.00;101778.22;6126616;23;20439;-80
2022/10/22 06:04:30;;;;;;;51.78;47.42;;;;;;;7.33;100.00;101784.25;6126436;23;20026;-80
2022/10/22 06:06:57;;;;;;;48.17;44.67;;;;;;;7.06;100.00;101789.72;6125224;23;20320;-79
2022/10/22 06:09:28;;;;;;;49.45;45.20;;;;;;;7.43;100.00;101785.94;6127245;23;20062;-80
2022/10/22 06:11:56;;;;;;;49.03;45.00;;;;;;;7.47;100.00;101784.63;6126760;23;20021;-80
2022/10/22 06:14:23;;;;;;;47.45;43.42;;;;;;;6.51;100.00;101792.66;6127022;23;20022;-79
2022/10/22 06:16:50;;;;;;;47.38;43.45;;;;;;;7.01;100.00;101784.09;6128385;23;20081;-79
2022/10/22 06:19:20;;;;;;;46.85;43.15;;;;;;;7.17;100.00;101778.06;6127873;23;20085;-79
2022/10/22 06:21:47;;;;;;;49.03;45.35;;;;;;;7.76;100.00;101790.34;6129091;23;20447;-79
2022/10/22 06:24:15;;;;;;;46.05;42.40;;;;;;;7.28;100.00;101772.50;6128056;23;20033;-79
2022/10/22 06:26:43;;;;;;;47.05;43.63;;;;;;;7.73;100.00;101773.97;6127805;23;20037;-80
2022/10/22 06:29:10;;;;;;;45.00;41.58;;;;;;;7.97;100.00;101773.22;6126994;23;20392;-80
2022/10/22 06:31:37;;;;;;;47.15;43.75;;;;;;;8.16;100.00;101757.00;6136630;23;20089;-80
2022/10/22 06:34:04;;;;;;;44.63;41.63;;;;;;;8.19;100.00;101750.56;6134494;23;20030;-81
2022/10/22 06:36:32;;;;;;;45.08;41.75;;;;;;;8.15;100.00;101754.53;6138286;23;20037;-81
2022/10/22 06:38:58;;;;;;;43.95;40.72;;;;;;;8.26;100.00;101752.41;6136504;23;20096;-80
2022/10/22 06:41:25;;;;;;;45.17;41.90;;;;;;;8.64;100.00;101752.72;6138219;23;20022;-80
2022/10/22 06:43:56;;;;;;;46.10;42.90;;;;;;;8.51;100.00;101752.44;6139817;23;20026;-80
2022/10/22 06:46:24;;;;;;;45.67;42.75;;;;;;;8.66;100.00;101753.41;6146136;23;20022;-80
2022/10/22 06:48:52;;;;;;;46.15;43.28;;;;;;;8.76;100.00;101747.91;6152216;23;20026;-80
2022/10/22 06:51:21;;;;;;;46.53;43.35;;;;;;;8.92;100.00;101745.22;6150759;23;20522;-80
2022/10/22 06:53:51;;;;;;;48.20;44.55;;;;;;;8.76;100.00;101745.25;6147787;23;20027;-80
2022/10/22 06:56:21;;;;;;;46.35;43.33;;;;;;;8.72;100.00;101746.59;6127347;23;20088;-82
2022/10/22 06:58:49;;;;;;;51.05;47.90;;;;;;;9.08;100.00;101748.84;6125886;23;20021;-81
2022/10/22 07:01:19;;;;;;;46.80;44.03;;;;;;;9.22;100.00;101737.50;6128294;23;20085;-80
2022/10/22 07:03:46;;;;;;;44.70;41.95;;;;;;;9.16;100.00;101744.31;6133170;23;20025;-79
2022/10/22 07:06:15;;;;;;;44.03;41.25;;;;;;;9.28;100.00;101746.59;6132851;23;20092;-81
2022/10/22 07:08:42;;;;;;;43.25;40.53;;;;;;;9.37;100.00;101745.56;6124903;23;20399;-79
2022/10/22 07:11:11;;;;;;;43.22;40.40;;;;;;;9.33;100.00;101749.56;6133943;23;20095;-80
2022/10/22 07:13:38;;;;;;;42.30;39.30;;;;;;;9.30;100.00;101740.13;6137237;23;20050;-80
2022/10/22 07:16:06;;;;;;;43.63;40.95;;;;;;;9.53;100.00;101736.69;6138019;23;20030;-80
2022/10/22 07:18:34;;;;;;;44.85;41.75;;;;;;;9.75;100.00;101735.91;6137476;23;20025;-82
2022/10/22 07:21:01;;;;;;;44.13;41.13;;;;;;;9.90;100.00;101727.19;6125074;23;20022;-82
2022/10/22 07:23:28;;;;;;;45.58;42.58;;;;;;;9.93;100.00;101721.53;6130038;23;20459;-78
2022/10/22 07:25:55;;;;;;;44.80;42.00;;;;;;;9.88;100.00;101718.59;6127130;23;20029;-78
2022/10/22 07:28:22;;;;;;;43.38;40.58;;;;;;;10.05;100.00;101714.81;6126281;23;20053;-80
2022/10/22 07:30:49;;;;;;;60.88;55.17;;;;;;;10.00;100.00;101707.38;6135185;23;20051;-80
2022/10/22 07:33:16;;;;;;;47.08;43.10;;;;;;;9.95;100.00;101696.44;6127471;23;20089;-82
2022/10/22 07:35:44;;;;;;;50.35;46.67;;;;;;;10.24;100.00;101687.75;6128672;23;20030;-80
2022/10/22 07:38:11;;;;;;;52.15;48.28;;;;;;;10.67;100.00;101695.16;6135581;23;20096;-80
2022/10/22 07:40:38;;;;;;;135.35;88.30;;;;;;;10.70;100.00;101689.50;6126295;23;20034;-80
2022/10/22 07:43:05;;;;;;;49.53;45.45;;;;;;;11.90;100.00;101684.56;6126132;23;20037;-80
2022/10/22 07:45:32;;;;;;;43.53;40.80;;;;;;;11.60;100.00;101678.53;6126077;23;20359;-80
2022/10/22 07:47:59;;;;;;;45.60;42.33;;;;;;;12.64;100.00;101691.28;6126331;23;20029;-80
2022/10/22 07:50:26;;;;;;;44.95;42.08;;;;;;;13.96;100.00;101690.13;6132312;23;20025;-80
2022/10/22 07:52:54;;;;;;;46.97;43.65;;;;;;;15.05;100.00;101696.78;6139329;23;20447;-81
2022/10/22 07:55:21;;;;;;;45.50;42.60;;;;;;;15.25;100.00;101694.00;6153516;23;20005;-80
2022/10/22 07:57:47;;;;;;;47.22;44.13;;;;;;;14.92;100.00;101694.97;6139824;23;20049;-80
2022/10/22 08:00:17;;;;;;;48.35;45.17;;;;;;;15.05;100.00;101686.88;6128022;23;20093;-80
2022/10/22 08:02:43;;;;;;;49.53;45.72;;;;;;;14.49;100.00;101687.41;6126810;23;20018;-80
2022/10/22 08:05:12;;;;;;;46.25;43.15;;;;;;;14.75;100.00;101685.75;6125930;23;20510;-80
2022/10/22 08:07:39;;;;;;;46.25;43.33;;;;;;;14.52;100.00;101692.38;6125989;23;20037;-80
2022/10/22 08:10:08;;;;;;;48.15;44.70;;;;;;;14.97;100.00;101697.00;6131680;23;20030;-80
2022/10/22 08:12:35;;;;;;;46.45;43.13;;;;;;;14.66;100.00;101701.19;6126160;23;20033;-80
2022/10/22 08:15:01;;;;;;;47.72;44.30;;;;;;;14.68;100.00;101695.66;6125794;23;20022;-80
2022/10/22 08:17:28;;;;;;;46.90;43.92;;;;;;;15.16;100.00;101695.28;6126230;23;20026;-80
2022/10/22 08:19:55;;;;;;;48.45;45.00;;;;;;;14.73;100.00;101709.19;6126087;23;20025;-80
2022/10/22 08:22:22;;;;;;;48.05;44.80;;;;;;;14.64;100.00;101701.44;6125426;23;20018;-80
2022/10/22 08:24:49;;;;;;;48.95;45.65;;;;;;;14.34;100.00;101703.69;6125852;23;20030;-82
2022/10/22 08:27:17;;;;;;;46.78;43.50;;;;;;;15.04;100.00;101701.31;6126388;23;20036;-82
2022/10/22 08:29:44;;;;;;;46.72;43.45;;;;;;;15.14;100.00;101708.06;6125958;23;20553;-82
2022/10/22 08:32:12;;;;;;;47.65;44.28;;;;;;;14.69;100.00;101700.78;6132472;23;20005;-81
2022/10/22 08:34:39;;;;;;;47.55;44.30;;;;;;;14.44;100.00;101709.44;6151557;23;20089;-80
2022/10/22 08:37:09;;;;;;;44.97;42.05;;;;;;;14.98;100.00;101695.97;6152148;23;20022;-80
2022/10/22 08:39:36;;;;;;;45.22;42.28;;;;;;;14.36;100.00;101695.47;6144495;23;20029;-80
2022/10/22 08:42:21;;;;;;;46.47;43.40;;;;;;;14.35;100.00;101699.97;6151173;23;20080;-80
2022/10/22 08:45:03;;;;;;;45.35;42.22;;;;;;;14.61;100.00;101692.97;6151364;23;20026;-80
2022/10/22 08:47:49;;;;;;;45.45;42.15;;;;;;;14.24;100.00;101689.09;6139919;23;20376;-80
2022/10/22 08:50:22;;;;;;;45.75;42.78;;;;;;;14.39;100.00;101687.84;6125725;23;20419;-80
2022/10/22 08:52:59;;;;;;;58.17;53.30;;;;;;;14.97;100.00;101676.41;6135953;23;20013;-81
2022/10/22 08:55:28;;;;;;;45.20;41.97;;;;;;;14.38;100.00;101685.38;6137614;23;20026;-82
2022/10/22 08:58:00;;;;;;;46.05;42.67;;;;;;;14.71;100.00;101690.72;6125785;23;20022;-82
2022/10/22 09:00:34;;;;;;;;;;;;;;;14.46;100.00;101682.47;6125709;23;20021;-80
2022/10/22 09:03:19;;;;;;;47.20;43.97;;;;;;;14.12;100.00;101687.03;6124315;23;19916;-80
2022/10/22 09:05:52;;;;;;;48.90;44.83;;;;;;;14.57;100.00;101686.41;6124675;23;20034;-80
2022/10/22 09:08:20;;;;;;;46.33;43.10;;;;;;;14.59;100.00;101685.19;6125450;23;20026;-82
2022/10/22 09:10:50;;;;;;;44.92;41.92;;;;;;;14.56;100.00;101690.94;6125871;23;20068;-81
2022/10/22 09:13:21;;;;;;;46.45;43.30;;;;;;;14.68;100.00;101691.13;6125344;23;20026;-81
2022/10/22 09:15:53;;;;;;;45.15;42.25;;;;;;;14.76;100.00;101698.09;6126231;23;20092;-80
2022/10/22 09:18:33;;;;;;;48.50;45.47;;;;;;;14.74;100.00;101689.47;6125965;23;20026;-80
2022/10/22 09:21:06;;;;;;;49.85;46.72;;;;;;;14.92;100.00;101686.09;6125275;23;20026;-80
2022/10/22 09:23:42;;;;;;;51.25;47.95;;;;;;;14.66;100.00;101683.31;6125666;23;20053;-80
2022/10/22 09:26:13;;;;;;;47.42;44.47;;;;;;;15.03;100.00;101685.44;6125640;23;20096;-80
2022/10/22 09:28:40;;;;;;;50.58;47.13;;;;;;;15.35;100.00;101671.09;6133971;23;20048;-80
2022/10/22 09:31:12;;;;;;;51.75;48.05;;;;;;;15.01;100.00;101679.50;6134999;23;20057;-80
2022/10/22 09:33:39;;;;;;;48.77;45.57;;;;;;;14.95;100.00;101675.81;6130462;23;20073;-82
2022/10/22 09:36:07;;;;;;;48.40;44.63;;;;;;;15.69;100.00;101687.00;6127667;23;20249;-80
2022/10/22 09:38:46;;;;;;;47.42;43.97;;;;;;;16.67;100.00;101678.31;6128006;23;20021;-80
2022/10/22 09:41:13;;;;;;;49.78;46.17;;;;;;;15.81;100.00;101677.22;6127079;23;20026;-80
2022/10/22 09:43:40;;;;;;;49.40;45.88;;;;;;;15.85;100.00;101667.72;6126947;23;20097;-80
2022/10/22 09:46:16;;;;;;;50.05;46.78;;;;;;;15.98;100.00;101664.13;6129906;23;20030;-80
2022/10/22 09:48:48;;;;;;;50.28;47.03;;;;;;;16.68;100.00;101656.63;6128942;23;20340;-82
2022/10/22 09:51:20;;;;;;;48.87;45.60;;;;;;;16.34;100.00;101662.53;6127160;23;20424;-82
2022/10/22 09:53:56;;;;;;;50.10;46.53;;;;;;;16.66;98.67;101660.56;6127061;23;20699;-82
2022/10/22 09:56:27;;;;;;;49.47;45.90;;;;;;;16.87;100.00;101665.53;6126542;23;20022;-82
2022/10/22 09:58:56;;;;;;;50.25;46.80;;;;;;;17.07;95.74;101659.09;6135180;23;20397;-80
2022/10/22 10:01:26;;;;;;;50.42;47.08;;;;;;;17.11;96.20;101649.53;6133352;23;20026;-80
2022/10/22 10:03:53;;;;;;;49.08;45.88;;;;;;;16.62;94.75;101646.81;6129963;23;20431;-80
2022/10/22 10:06:22;;;;;;;49.83;46.13;;;;;;;16.73;100.00;101645.22;6126349;23;20081;-82
2022/10/22 10:08:49;;;;;;;49.55;45.95;;;;;;;18.50;90.45;101631.19;6127103;23;20088;-82
2022/10/22 10:11:24;;;;;;;50.97;47.42;;;;;;;17.80;82.02;101636.59;6126870;23;20029;-81
2022/10/22 10:13:59;;;;;;;51.10;47.47;;;;;;;17.82;92.54;101639.84;6126631;23;20026;-81
2022/10/22 10:16:40;;;;;;;50.72;46.97;;;;;;;18.34;83.51;101623.88;6128366;23;20093;-80
2022/10/22 10:19:21;;;;;;;50.60;47.10;;;;;;;20.04;76.20;101617.88;6128185;23;20033;-80
2022/10/22 10:21:57;;;;;;;51.17;47.63;;;;;;;19.24;66.51;101617.06;6126980;23;20092;-80
2022/10/22 10:24:34;;;;;;;51.35;46.75;;;;;;;19.45;73.30;101624.47;6127012;23;20029;-80
2022/10/22 10:27:05;;;;;;;51.65;47.92;;;;;;;19.41;71.07;101619.78;6126800;23;20530;-82
2022/10/22 10:29:44;;;;;;;48.25;45.00;;;;;;;18.36;72.30;101621.75;6130836;23;20404;-80
2022/10/22 10:32:32;;;;;;;48.60;44.95;;;;;;;18.72;69.93;101617.94;6144302;23;20010;-80
2022/10/22 10:35:11;;;;;;;48.15;44.95;;;;;;;20.09;61.47;101616.06;6135360;23;20026;-80
2022/10/22 10:37:46;;;;;;;52.13;48.22;;;;;;;18.51;63.68;101614.00;6126846;23;20026;-80
2022/10/22 10:40:27;;;;;;;52.85;49.20;;;;;;;19.22;64.10;101611.09;6135131;23;20010;-80
2022/10/22 10:43:00;;;;;;;50.77;47.20;;;;;;;19.26;61.30;101597.97;6138555;23;20025;-80
2022/10/22 10:45:36;;;;;;;49.00;45.63;;;;;;;20.46;59.12;101593.09;6132935;23;20246;-80
2022/10/22 10:48:36;;;;;;;50.28;46.78;;;;;;;19.55;57.97;101591.47;6130710;23;20034;-80
2022/10/22 10:51:14;;;;;;;51.00;47.30;;;;;;;18.82;71.02;101584.22;6126176;23;20026;-80
2022/10/22 10:53:54;;;;;;;48.88;45.28;;;;;;;18.32;69.71;101582.94;6126895;23;20384;-80
2022/10/22 10:56:33;;;;;;;49.28;45.78;;;;;;;18.41;73.53;101575.31;6149570;23;20022;-80
2022/10/22 10:59:10;;;;;;;49.75;46.25;;;;;;;17.56;73.25;101576.59;6151109;23;20029;-80
2022/10/22 11:01:47;;;;;;;49.05;45.53;;;;;;;17.56;84.64;101561.31;6138244;23;20021;-81
2022/10/22 11:04:41;;;;;;;49.03;45.28;;;;;;;18.62;74.28;101566.59;6126207;23;20037;-80
2022/10/22 11:07:14;;;;;;;49.63;46.20;;;;;;;17.88;67.78;101554.78;6126855;23;20097;-80
2022/10/22 11:09:46;;;;;;;49.72;45.92;;;;;;;17.49;76.93;101559.75;6132353;23;20372;-80
2022/10/22 11:12:21;;;;;;;50.15;46.75;;;;;;;18.89;67.61;101545.34;6133023;23;20439;-80
2022/10/22 11:14:58;;;;;;;52.00;48.35;;;;;;;18.65;68.25;101535.72;6139765;23;20048;-80
2022/10/22 11:17:42;;;;;;;54.40;50.08;;;;;;;18.76;72.89;101527.63;6153233;23;20006;-80
2022/10/22 11:20:18;;;;;;;51.72;47.58;;;;;;;18.75;65.46;101533.25;6153357;23;20010;-80
2022/10/22 11:22:50;;;;;;;49.63;46.17;;;;;;;18.57;76.55;101518.06;6152515;23;20055;-80
2022/10/22 11:25:21;;;;;;;49.40;45.92;;;;;;;18.35;67.84;101517.91;6152415;23;20030;-80
2022/10/22 11:27:53;;;;;;;48.60;45.28;;;;;;;17.63;78.72;101510.16;6136777;23;20034;-80
2022/10/22 11:30:25;;;;;;;48.33;44.97;;;;;;;17.82;75.21;101511.72;6143236;23;20006;-80
2022/10/22 11:33:03;;;;;;;50.97;47.20;;;;;;;17.90;80.16;101504.34;6153251;23;20005;-80
2022/10/22 11:35:35;;;;;;;49.35;45.67;;;;;;;18.08;73.39;101502.31;6136900;23;20021;-82
2022/10/22 11:38:06;;;;;;;48.75;45.35;;;;;;;18.37;77.06;101490.81;6130739;23;20029;-80
2022/10/22 11:40:37;;;;;;;47.63;44.13;;;;;;;17.74;74.76;101492.41;6135967;23;20040;-80
2022/10/22 11:43:05;;;;;;;46.92;43.50;;;;;;;17.92;78.49;101491.50;6132260;23;20071;-80